createdAt,value
2023-02-27T00:00:48.825Z,-3.00
2023-02-27T00:03:15.472Z,-2.90
2023-02-27T00:05:42.469Z,-2.90
2023-02-27T00:08:09.053Z,-3.00
2023-02-27T00:10:35.890Z,-3.00
2023-02-27T00:13:02.489Z,-3.00
2023-02-27T00:15:31.828Z,-3.00
2023-02-27T00:17:59.139Z,-3.00
2023-02-27T00:20:26.144Z,-3.00
2023-02-27T00:22:52.743Z,-1.60
2023-02-27T00:25:19.440Z,-3.00
2023-02-27T00:27:46.064Z,-3.10
2023-02-27T00:30:14.186Z,-5.50
2023-02-27T00:32:40.931Z,-3.10
2023-02-27T00:35:08.903Z,-3.00
2023-02-27T00:37:35.663Z,-3.00
2023-02-27T00:40:05.622Z,-3.00
2023-02-27T00:42:34.404Z,-1.70
2023-02-27T00:45:01.087Z,-3.10
2023-02-27T00:47:27.766Z,-2.10
2023-02-27T00:49:54.463Z,-3.10
2023-02-27T00:52:21.226Z,-3.10
2023-02-27T00:54:49.686Z,-3.10
2023-02-27T00:57:16.347Z,-3.20
2023-02-27T00:59:43.137Z,-3.20
2023-02-27T01:02:09.801Z,-3.20
2023-02-27T01:04:36.640Z,-3.20
2023-02-27T01:07:03.592Z,-3.20
2023-02-27T01:09:30.284Z,-3.20
2023-02-27T01:11:57.613Z,-3.20
2023-02-27T01:14:24.335Z,-3.20
2023-02-27T01:16:50.992Z,-3.20
2023-02-27T01:19:17.683Z,-3.10
2023-02-27T01:21:44.712Z,-3.10
2023-02-27T01:24:12.554Z,-1.80
2023-02-27T01:26:39.369Z,-3.20
2023-02-27T01:29:06.566Z,-3.30
2023-02-27T01:31:34.852Z,-3.20
2023-02-27T01:34:01.576Z,-3.20
2023-02-27T01:36:28.286Z,-3.20
2023-02-27T01:38:55.098Z,-3.20
2023-02-27T01:41:21.710Z,-3.20
2023-02-27T01:44:00.504Z,-3.20
2023-02-27T01:46:28.094Z,-3.20
2023-02-27T01:48:59.496Z,-3.20
2023-02-27T01:51:30.275Z,-3.20
2023-02-27T01:53:57.344Z,-3.20
2023-02-27T01:56:25.542Z,-3.20
2023-02-27T01:58:53.784Z,-3.20
2023-02-27T02:01:21.257Z,-3.20
2023-02-27T02:03:50.518Z,-3.20
2023-02-27T02:06:17.285Z,-3.20
2023-02-27T02:08:45.690Z,-3.30
2023-02-27T02:11:15.806Z,-1.00
2023-02-27T02:13:42.566Z,-3.30
2023-02-27T02:16:35.651Z,-3.30
2023-02-27T02:19:34.408Z,-3.30
2023-02-27T02:22:16.228Z,-3.30
2023-02-27T02:24:48.836Z,-3.30
2023-02-27T02:27:19.176Z,-3.30
2023-02-27T02:29:52.012Z,-3.30
2023-02-27T02:32:36.927Z,-3.40
2023-02-27T02:35:09.632Z,-3.30
2023-02-27T02:38:02.662Z,-3.30
2023-02-27T02:40:38.061Z,-3.30
2023-02-27T02:43:07.861Z,-3.30
2023-02-27T02:45:40.624Z,-3.40
2023-02-27T02:48:16.565Z,-3.30
2023-02-27T02:50:51.165Z,-3.30
2023-02-27T02:53:37.694Z,-3.40
2023-02-27T02:56:07.028Z,-3.40
2023-02-27T02:58:39.580Z,-3.40
2023-02-27T03:01:13.371Z,-3.40
2023-02-27T03:03:43.373Z,-3.40
2023-02-27T03:06:12.551Z,-3.40
2023-02-27T03:08:42.469Z,-3.40
2023-02-27T03:11:09.232Z,-3.40
2023-02-27T03:13:43.747Z,-3.30
2023-02-27T03:16:15.817Z,-3.40
2023-02-27T03:18:49.493Z,-3.40
2023-02-27T03:21:22.731Z,-3.40
2023-02-27T03:23:50.171Z,-3.40
2023-02-27T03:26:23.110Z,-3.30
2023-02-27T03:28:57.253Z,-3.40
2023-02-27T03:31:30.163Z,-3.40
2023-02-27T03:34:04.649Z,-3.40
2023-02-27T03:36:39.424Z,-3.40
2023-02-27T03:39:20.841Z,-3.40
2023-02-27T03:41:47.600Z,-3.50
2023-02-27T03:44:52.933Z,-3.50
2023-02-27T03:47:19.951Z,-3.50
2023-02-27T03:49:46.660Z,-3.40
2023-02-27T03:52:13.290Z,-3.50
2023-02-27T03:54:43.821Z,-3.50
2023-02-27T03:57:11.745Z,-3.50
2023-02-27T03:59:38.748Z,-3.50
2023-02-27T04:02:05.697Z,-3.50
2023-02-27T04:04:33.015Z,-3.50
2023-02-27T04:07:24.829Z,-3.50
2023-02-27T04:10:10.358Z,-3.60
2023-02-27T04:12:40.087Z,-3.50
2023-02-27T04:15:25.748Z,-3.60
2023-02-27T04:18:01.064Z,-3.50
2023-02-27T04:20:27.662Z,-3.50
2023-02-27T04:22:54.221Z,-3.50
2023-02-27T04:25:27.141Z,-3.50
2023-02-27T04:27:59.726Z,-3.50
2023-02-27T04:30:26.416Z,-3.50
2023-02-27T04:33:02.021Z,-3.50
2023-02-27T04:35:47.637Z,-3.50
2023-02-27T04:38:17.791Z,-3.50
2023-02-27T04:40:47.830Z,-3.50
2023-02-27T04:43:15.034Z,-3.50
2023-02-27T04:45:43.583Z,-3.50
2023-02-27T04:48:30.409Z,-3.60
2023-02-27T04:51:02.304Z,-3.50
2023-02-27T04:53:36.325Z,-3.60
2023-02-27T04:56:09.737Z,-3.60
2023-02-27T04:58:46.675Z,-4.80
2023-02-27T05:01:25.572Z,-3.60
2023-02-27T05:03:53.686Z,-3.60
2023-02-27T05:06:21.920Z,-3.60
2023-02-27T05:09:01.347Z,-3.60
2023-02-27T05:11:31.131Z,-3.60
2023-02-27T05:14:06.824Z,-3.60
2023-02-27T05:16:39.483Z,-3.60
2023-02-27T05:19:06.372Z,-5.40
2023-02-27T05:21:32.992Z,-3.50
2023-02-27T05:24:12.096Z,-3.60
2023-02-27T05:26:46.229Z,-3.60
2023-02-27T05:29:32.291Z,-3.60
2023-02-27T05:32:05.206Z,-3.60
2023-02-27T05:34:35.289Z,-3.60
2023-02-27T05:37:04.761Z,-3.60
2023-02-27T05:39:32.900Z,-3.60
2023-02-27T05:42:14.370Z,-3.60
2023-02-27T05:44:44.510Z,-3.60
2023-02-27T05:47:13.555Z,-3.60
2023-02-27T05:49:42.362Z,-3.60
2023-02-27T05:52:12.073Z,-3.60
2023-02-27T05:54:41.685Z,-3.60
2023-02-27T05:57:10.794Z,-3.60
2023-02-27T05:59:47.083Z,-3.80
2023-02-27T06:02:14.042Z,-3.60
2023-02-27T06:04:40.893Z,-3.60
2023-02-27T06:07:08.646Z,-3.90
2023-02-27T06:09:35.745Z,-3.70
2023-02-27T06:12:02.491Z,-3.70
2023-02-27T06:14:29.144Z,-3.70
2023-02-27T06:16:55.870Z,-3.70
2023-02-27T06:19:22.510Z,-1.90
2023-02-27T06:21:49.921Z,-3.80
2023-02-27T06:24:16.520Z,-3.80
2023-02-27T06:26:43.285Z,-3.90
2023-02-27T06:29:09.901Z,-3.90
2023-02-27T06:31:36.520Z,-4.00
2023-02-27T06:34:03.112Z,-4.00
2023-02-27T06:36:30.049Z,-4.00
2023-02-27T06:38:58.056Z,-4.00
2023-02-27T06:41:24.752Z,-4.00
2023-02-27T06:43:51.421Z,-4.00
2023-02-27T06:46:18.089Z,-4.00
2023-02-27T06:48:45.524Z,-4.00
2023-02-27T06:51:12.197Z,-4.00
2023-02-27T06:53:38.961Z,-2.10
2023-02-27T06:56:05.865Z,-3.90
2023-02-27T06:58:32.465Z,-3.90
2023-02-27T07:01:00.102Z,-3.90
2023-02-27T07:03:26.803Z,-3.90
2023-02-27T07:05:53.445Z,-3.90
2023-02-27T07:08:20.181Z,-3.80
2023-02-27T07:10:46.980Z,-3.70
2023-02-27T07:13:16.805Z,-3.90
2023-02-27T07:15:44.735Z,-3.70
2023-02-27T07:18:11.354Z,-3.50
2023-02-27T07:20:38.021Z,-3.40
2023-02-27T07:23:04.637Z,-3.30
2023-02-27T07:25:31.196Z,-3.20
2023-02-27T07:27:57.836Z,-3.20
2023-02-27T07:30:24.518Z,-3.10
2023-02-27T07:32:51.531Z,-3.10
2023-02-27T07:35:18.564Z,-3.00
2023-02-27T07:37:46.713Z,-3.00
2023-02-27T07:40:14.274Z,-2.90
2023-02-27T07:42:40.968Z,-2.80
2023-02-27T07:45:07.986Z,-2.70
2023-02-27T07:47:34.662Z,-2.70
2023-02-27T07:50:01.246Z,-2.60
2023-02-27T07:52:27.994Z,-2.50
2023-02-27T07:54:54.638Z,-2.50
2023-02-27T07:57:21.290Z,-2.40
2023-02-27T07:59:48.483Z,0.10
2023-02-27T08:02:15.553Z,-2.30
2023-02-27T08:04:42.304Z,-2.30
2023-02-27T08:07:08.965Z,-2.20
2023-02-27T08:09:35.618Z,-3.90
2023-02-27T08:12:03.012Z,-2.10
2023-02-27T08:14:29.723Z,-2.00
2023-02-27T08:16:56.372Z,-1.90
2023-02-27T08:19:22.965Z,-1.80
2023-02-27T08:21:49.813Z,-1.80
2023-02-27T08:24:16.407Z,-1.70
2023-02-27T08:26:43.133Z,-1.70
2023-02-27T08:29:09.779Z,-1.60
2023-02-27T08:31:36.471Z,-1.50
2023-02-27T08:34:10.144Z,-1.50
2023-02-27T08:36:37.636Z,-1.50
2023-02-27T08:39:04.838Z,-1.40
2023-02-27T08:41:31.438Z,0.60
2023-02-27T08:43:58.065Z,-1.30
2023-02-27T08:46:24.876Z,-1.30
2023-02-27T08:48:51.807Z,-1.30
2023-02-27T08:51:18.689Z,0.70
2023-02-27T08:53:45.422Z,-1.20
2023-02-27T08:56:12.129Z,0.40
2023-02-27T08:58:39.397Z,-1.20
2023-02-27T09:01:06.056Z,-1.10
2023-02-27T09:03:32.835Z,-1.00
2023-02-27T09:05:59.498Z,-0.80
2023-02-27T09:08:26.150Z,-0.80
2023-02-27T09:10:55.799Z,-0.80
2023-02-27T09:13:22.395Z,-0.70
2023-02-27T09:15:49.073Z,-0.60
2023-02-27T09:18:15.821Z,-0.60
2023-02-27T09:20:42.401Z,-0.60
2023-02-27T09:23:09.000Z,-0.50
2023-02-27T09:25:35.579Z,-0.40
2023-02-27T09:28:02.205Z,-0.40
2023-02-27T09:30:28.850Z,-0.20
2023-02-27T09:32:55.511Z,-0.20
2023-02-27T09:35:22.228Z,-0.10
2023-02-27T09:37:49.634Z,0.00
2023-02-27T09:40:22.676Z,0.00
2023-02-27T09:42:49.622Z,0.10
2023-02-27T09:45:23.482Z,0.20
2023-02-27T09:47:53.851Z,0.20
2023-02-27T09:50:39.374Z,0.40
2023-02-27T09:53:07.106Z,0.40
2023-02-27T09:55:35.602Z,0.50
2023-02-27T09:58:06.757Z,0.50
2023-02-27T10:00:55.225Z,0.50
2023-02-27T10:03:31.247Z,0.50
2023-02-27T10:06:17.674Z,0.60
2023-02-27T10:08:47.316Z,0.70
2023-02-27T10:11:16.021Z,0.70
2023-02-27T10:13:49.287Z,3.60
2023-02-27T10:16:19.118Z,0.90
2023-02-27T10:18:52.956Z,1.00
2023-02-27T10:21:24.764Z,1.00
2023-02-27T10:24:07.826Z,1.00
2023-02-27T10:26:39.959Z,1.10
2023-02-27T10:29:18.976Z,1.10
2023-02-27T10:31:46.897Z,1.10
2023-02-27T10:34:16.338Z,1.20
2023-02-27T10:36:44.666Z,1.30
2023-02-27T10:39:13.895Z,1.40
2023-02-27T10:41:40.611Z,1.40
2023-02-27T10:44:07.280Z,1.50
2023-02-27T10:46:35.811Z,1.50
2023-02-27T10:49:05.630Z,1.50
2023-02-27T10:51:35.006Z,1.50
2023-02-27T10:54:20.475Z,1.50
2023-02-27T10:56:52.317Z,1.50
2023-02-27T10:59:38.781Z,1.50
2023-02-27T11:02:17.465Z,1.40
2023-02-27T11:04:48.783Z,1.40
2023-02-27T11:07:18.416Z,1.40
2023-02-27T11:09:58.102Z,1.60
2023-02-27T11:12:30.076Z,1.70
2023-02-27T11:14:57.741Z,1.90
2023-02-27T11:17:34.320Z,2.20
2023-02-27T11:20:02.040Z,2.10
2023-02-27T11:22:29.550Z,2.00
2023-02-27T11:25:15.187Z,1.90
2023-02-27T11:27:41.880Z,1.60
2023-02-27T11:30:28.413Z,1.60
2023-02-27T11:32:56.554Z,1.40
2023-02-27T11:35:37.227Z,1.30
2023-02-27T11:38:05.581Z,1.40
2023-02-27T11:40:33.213Z,1.40
2023-02-27T11:43:14.944Z,1.40
2023-02-27T11:46:13.910Z,1.40
2023-02-27T11:48:30.785Z,1.30
2023-02-27T11:51:16.000Z,4.00
2023-02-27T11:53:42.571Z,1.30
2023-02-27T11:56:11.686Z,1.30
2023-02-27T11:58:45.818Z,1.30
2023-02-27T12:01:16.790Z,1.30
2023-02-27T12:03:43.356Z,1.70
2023-02-27T12:06:18.947Z,1.30
2023-02-27T12:08:49.317Z,1.20
2023-02-27T12:11:20.743Z,1.20
2023-02-27T12:13:51.021Z,1.20
2023-02-27T12:16:17.725Z,1.40
2023-02-27T12:18:51.351Z,1.50
2023-02-27T12:21:37.394Z,1.60
2023-02-27T12:24:18.461Z,1.90
2023-02-27T12:26:50.912Z,2.10
2023-02-27T12:29:32.919Z,2.10
2023-02-27T12:31:59.553Z,2.20
2023-02-27T12:34:29.283Z,2.40
2023-02-27T12:37:03.694Z,2.60
2023-02-27T12:39:30.767Z,2.50
2023-02-27T12:42:15.922Z,2.40
2023-02-27T12:45:01.238Z,2.20
2023-02-27T12:47:48.487Z,2.00
2023-02-27T12:50:22.753Z,2.20
2023-02-27T12:52:55.479Z,2.20
2023-02-27T12:55:33.179Z,2.30
2023-02-27T12:58:08.855Z,2.30
2023-02-27T13:00:46.067Z,2.30
2023-02-27T13:03:21.768Z,2.30
2023-02-27T13:05:53.663Z,2.30
2023-02-27T13:08:38.621Z,2.40
2023-02-27T13:11:18.635Z,2.40
2023-02-27T13:13:48.748Z,2.40
2023-02-27T13:16:17.653Z,2.50
2023-02-27T13:19:04.082Z,2.50
2023-02-27T13:21:30.722Z,2.50
2023-02-27T13:24:17.507Z,2.40
2023-02-27T13:26:50.358Z,2.40
2023-02-27T13:29:18.366Z,2.50
2023-02-27T13:31:53.483Z,2.30
2023-02-27T13:34:27.643Z,2.40
2023-02-27T13:37:05.026Z,2.30
2023-02-27T13:39:47.037Z,2.30
2023-02-27T13:42:25.979Z,2.20
2023-02-27T13:44:56.477Z,2.20
2023-02-27T13:47:29.198Z,2.20
2023-02-27T13:49:58.429Z,2.20
2023-02-27T13:52:29.477Z,2.00
2023-02-27T13:54:59.875Z,1.90
2023-02-27T13:57:33.661Z,1.90
2023-02-27T14:00:00.312Z,2.00
2023-02-27T14:02:33.093Z,2.00
2023-02-27T14:05:02.994Z,2.00
2023-02-27T14:07:32.309Z,2.00
2023-02-27T14:10:04.020Z,2.00
2023-02-27T14:12:43.982Z,2.00
2023-02-27T14:15:18.403Z,1.90
2023-02-27T14:17:46.336Z,1.80
2023-02-27T14:20:29.920Z,1.80
2023-02-27T14:23:14.847Z,1.80
2023-02-27T14:25:45.384Z,1.90
2023-02-27T14:28:18.472Z,1.80
2023-02-27T14:30:51.336Z,1.80
2023-02-27T14:33:21.637Z,1.80
2023-02-27T14:35:57.958Z,1.80
2023-02-27T14:38:25.934Z,1.70
2023-02-27T14:41:05.850Z,1.70
2023-02-27T14:43:36.341Z,1.70
2023-02-27T14:46:07.882Z,1.70
2023-02-27T14:48:37.587Z,1.70
2023-02-27T14:51:04.698Z,1.70
2023-02-27T14:53:31.375Z,1.70
2023-02-27T14:55:58.711Z,1.70
2023-02-27T14:58:25.710Z,1.70
2023-02-27T15:00:55.511Z,0.70
2023-02-27T15:03:23.710Z,1.70
2023-02-27T15:05:52.336Z,1.70
2023-02-27T15:08:21.942Z,1.70
2023-02-27T15:10:48.820Z,1.50
2023-02-27T15:13:21.589Z,1.50
2023-02-27T15:15:48.767Z,1.50
2023-02-27T15:18:15.504Z,1.40
2023-02-27T15:20:42.130Z,1.40
2023-02-27T15:23:28.500Z,1.40
2023-02-27T15:25:57.301Z,1.30
2023-02-27T15:28:24.797Z,1.30
2023-02-27T15:30:52.647Z,1.30
2023-02-27T15:33:22.457Z,1.20
2023-02-27T15:35:49.133Z,1.10
2023-02-27T15:38:27.939Z,1.10
2023-02-27T15:40:55.807Z,1.10
2023-02-27T15:43:23.240Z,1.00
2023-02-27T15:45:50.057Z,1.00
2023-02-27T15:48:18.209Z,1.00
2023-02-27T15:50:49.424Z,1.00
2023-02-27T15:53:18.999Z,1.00
2023-02-27T15:56:06.606Z,1.00
2023-02-27T15:58:34.677Z,1.00
2023-02-27T16:01:21.645Z,0.90
2023-02-27T16:03:49.655Z,0.90
2023-02-27T16:06:21.788Z,0.90
2023-02-27T16:08:51.695Z,0.90
2023-02-27T16:11:19.276Z,0.90
2023-02-27T16:13:46.049Z,0.90
2023-02-27T16:16:22.042Z,0.80
2023-02-27T16:18:53.211Z,0.70
2023-02-27T16:21:21.424Z,0.70
2023-02-27T16:23:48.237Z,0.70
2023-02-27T16:26:31.031Z,0.60
2023-02-27T16:29:02.431Z,0.60
2023-02-27T16:31:30.762Z,0.60
2023-02-27T16:33:59.425Z,0.60
2023-02-27T16:36:27.503Z,0.60
2023-02-27T16:38:54.784Z,0.50
2023-02-27T16:41:22.249Z,0.50
2023-02-27T16:43:59.644Z,0.40
2023-02-27T16:49:23.054Z,3.40
2023-02-27T16:51:58.867Z,0.30
2023-02-27T16:54:28.981Z,0.30
2023-02-27T16:57:02.845Z,0.30
2023-02-27T16:59:42.954Z,3.10
2023-02-27T17:02:16.545Z,2.80
2023-02-27T17:04:45.199Z,0.20
2023-02-27T17:07:16.846Z,3.30
2023-02-27T17:09:46.193Z,0.30
2023-02-27T21:02:34.707Z,-1.30
2023-02-27T21:05:01.986Z,-1.40
2023-02-27T21:07:31.213Z,-1.80
2023-02-27T21:09:57.983Z,2.10
2023-02-27T21:12:25.010Z,-1.40
2023-02-27T21:14:51.763Z,-1.50
2023-02-27T21:17:18.506Z,-1.40
2023-02-27T21:19:45.327Z,1.80
2023-02-27T21:22:12.388Z,-1.40
2023-02-27T21:24:40.250Z,-1.40
2023-02-27T21:27:07.205Z,1.90
2023-02-27T21:29:36.510Z,1.20
2023-02-27T21:32:03.522Z,0.10
2023-02-27T21:34:30.266Z,-1.50
2023-02-27T21:36:57.328Z,1.80
2023-02-27T21:39:26.140Z,2.00
2023-02-27T21:41:53.058Z,1.20
2023-02-27T21:44:21.250Z,-1.70
2023-02-27T21:46:48.190Z,0.30
2023-02-27T21:49:41.360Z,-1.80
2023-02-27T21:52:08.196Z,-1.80
2023-02-27T21:54:35.013Z,-1.90
2023-02-27T21:57:03.388Z,0.40
2023-02-27T21:59:30.315Z,-1.80
2023-02-27T22:01:57.510Z,-1.70
2023-02-27T22:04:24.402Z,-1.80
2023-02-27T22:06:51.562Z,-1.90
2023-02-27T22:09:18.663Z,-1.90
2023-02-27T22:11:45.305Z,-2.00
2023-02-27T22:14:12.099Z,-2.00
2023-02-27T22:16:39.269Z,-2.00
2023-02-27T22:19:07.539Z,-2.00
2023-02-27T22:21:34.798Z,-2.00
2023-02-27T22:24:01.419Z,-2.00
2023-02-27T22:26:28.354Z,-2.00
2023-02-27T22:28:56.201Z,-2.10
2023-02-27T22:31:24.154Z,-2.10
2023-02-27T22:33:52.253Z,-2.10
2023-02-27T22:36:20.232Z,-2.10
2023-02-27T22:38:47.240Z,-2.20
2023-02-27T22:41:15.133Z,-2.20
2023-02-27T22:43:44.596Z,-2.20
2023-02-27T22:46:12.375Z,-2.30
2023-02-27T22:48:38.989Z,-2.30
2023-02-27T22:51:07.230Z,-2.30
2023-02-27T22:53:38.364Z,-2.30
2023-02-27T22:56:12.823Z,-2.40
2023-02-27T22:58:40.105Z,-2.30
2023-02-27T23:01:14.610Z,-2.40
2023-02-27T23:03:41.574Z,-2.40
2023-02-27T23:06:09.648Z,-2.40
2023-02-27T23:08:36.551Z,-2.40
2023-02-27T23:11:03.670Z,-2.30
2023-02-27T23:13:32.078Z,-2.30
2023-02-27T23:15:59.322Z,-2.40
2023-02-27T23:18:26.221Z,-2.40
2023-02-27T23:20:52.811Z,-2.40
2023-02-27T23:23:19.473Z,-2.40
2023-02-27T23:25:46.085Z,-2.40
2023-02-27T23:28:12.712Z,-2.40
2023-02-27T23:30:39.335Z,-2.40
2023-02-27T23:33:05.877Z,-2.40
2023-02-27T23:35:32.584Z,-2.40
2023-02-27T23:38:00.572Z,-2.40
2023-02-27T23:40:27.784Z,-2.40
2023-02-27T23:43:13.166Z,-2.40
2023-02-27T23:45:39.944Z,-2.40
2023-02-27T23:48:07.292Z,-2.40
2023-02-27T23:50:38.458Z,-2.40
2023-02-27T23:53:06.144Z,-2.50
2023-02-27T23:55:34.266Z,-2.40
2023-02-27T23:58:01.525Z,-2.50
